Fort Wayne, IN

6:02 PM EDT on October 20, 2014 (GMT -0400)
Fort Wayne International | Change Station
CLOSE
Current Station
Airport
Location: Fort Wayne,
Elevation: 827 ft
Nearby Weather Stations

Elev 827 ft 40.98 °N, 85.19 °W | Updated 8 minutes ago

Mostly Cloudy
Mostly Cloudy
61 °F
Feels Like 61 °F
N
6
Wind Variable Wind from WNW

Today
High -- | Low -- °F
--% Chance of Precip.
Yesterday
High -- | Low -- °F
Precip. -- in
7:57 AM 6:52 PM
Waning Crescent, 9% visible
Pressure 29.83 in
Visibility 10.0 miles
Clouds Mostly Cloudy 6500 ft
Dew Point 49 °F
Humidity 64%
Rainfall 0.03 in
Snow Depth Not available.
UV 0 out of 12
Pollen 1.00 out of 12
PM2.5 Good
Flu Activity Sporadic
METAR KFWA 202154Z 29005KT 10SM BKN065 16/09 A2983 RMK AO2 SLP102 T01610094

More Conditions Fewer Conditions

Pressure 29.83 in
Visibility 10.0 miles
Clouds Mostly Cloudy 6500 ft
Dew Point 49 °F
Humidity 64%
Rainfall 0.03 in
Snow Depth Not available.
UV 0 out of 12
Pollen 1.00 out of 12
PM2.5 Good
Flu Activity Sporadic
METAR KFWA 202154Z 29005KT 10SM BKN065 16/09 A2983 RMK AO2 SLP102 T01610094

More Conditions Fewer Conditions

10-Day Weather Forecast

Almanac

Astronomy

Oct. 20, 2014 Rise Set
Actual Time 7:57 AM EDT 6:52 PM EDT
Civil Twilight 7:29 AM EDT 7:20 PM EDT
Nautical Twilight 6:57 AM EDT 7:52 PM EDT
Astronomical Twilight 6:26 AM EDT 8:24 PM EDT
Moon 4:43 AM EDT 5:16 PM EDT
Length of Visible Light 11h 50m
Length of Day
10h 54m
Waning Crescent, 9% of the Moon is Illuminated
Today
Waning Crescent
Oct 23
New
Oct 30
First Quarter
Nov 6
Full
Nov 14
Last Quarter

Today's Extremes

State Highs State Lows

Community

WunderPhotos

Upload Photos

1,763,526 photos uploaded!

WunderBlogs® & News

By Dr. Jeff Masters
Director of Meteorology, Weather Underground
By Kari Strenfel
Meteorologist, Weather Underground
By Christopher C. Burt
Weather Historian, Weather Underground
October 20, 2014
October 20, 2014
October 20, 2014

Nearby

Air Quality

  Air Quality AQ Index Pollutant
Yesterday Good
PM2.5
Current Good
PM2.5
Monday Good
OZONE
Monday Good
PM2.5
Tuesday Good
OZONE
Tuesday Good
PM2.5
Wednesday Good
OZONE
Wednesday Good
PM2.5
Thursday Moderate
PM2.5
Thursday Good
OZONE
Friday Moderate
PM2.5
Friday Good
OZONE

Snow Depth

Station Depth Elevation
No new snow has been reported.

Earthquake Activity

City Distance Mag. Time & Date
No recent earthquake activity has been reported nearby.
Minimum magnitude displayed is 2.5.

Coastal Water Temperatures

Place Temperature
No Stations Reporting

Nearby Weather Stations